Time;durP1;ratioP1;P1;durP2;ratioP2;P2;SDS_P1;SDS_P2;PMS_P1;PMS_P2;Temp;Humidity;BMP_temperature;BMP_pressure;BME280_temperature;BME280_humidity;BME280_pressure;Samples;Min_cycle;Max_cycle;Signal;HPM_P1;HPM_P2
2022/05/30 00:01:33;;;;;;;7.85;1.58;;;12.80;98.40;;;;;;5014301;28;20157;-83
2022/05/30 00:03:58;;;;;;;6.38;1.25;;;12.70;98.20;;;;;;5014006;28;20030;-83
2022/05/30 00:06:25;;;;;;;6.45;1.30;;;12.70;98.20;;;;;;5013744;28;20036;-83
2022/05/30 00:08:51;;;;;;;7.05;1.75;;;12.70;98.00;;;;;;5013679;28;20478;-83
2022/05/30 00:11:17;;;;;;;8.10;1.40;;;12.70;98.10;;;;;;5013728;28;20061;-83
2022/05/30 00:13:44;;;;;;;8.40;1.67;;;12.70;98.20;;;;;;5014322;28;20026;-83
2022/05/30 00:16:12;;;;;;;6.30;1.35;;;12.60;98.20;;;;;;5013710;28;20062;-84
2022/05/30 00:18:39;;;;;;;6.95;1.60;;;12.60;98.30;;;;;;5013604;28;20462;-83
2022/05/30 00:21:05;;;;;;;5.72;1.73;;;12.60;98.20;;;;;;4995896;28;20038;-83
2022/05/30 00:23:31;;;;;;;4.40;1.50;;;12.60;98.30;;;;;;5012623;28;20029;-83
2022/05/30 00:25:57;;;;;;;9.40;1.60;;;12.50;98.30;;;;;;5013409;28;20498;-84
2022/05/30 00:28:22;;;;;;;5.45;1.30;;;12.60;98.40;;;;;;5012477;28;20513;-83
2022/05/30 00:30:49;;;;;;;6.93;1.70;;;12.60;98.40;;;;;;5028524;28;20034;-84
2022/05/30 00:33:16;;;;;;;6.40;1.23;;;12.60;98.40;;;;;;5012491;28;20064;-83
2022/05/30 00:35:42;;;;;;;8.85;1.70;;;12.60;98.50;;;;;;5011971;28;20502;-83
2022/05/30 00:38:09;;;;;;;7.97;1.60;;;12.60;98.40;;;;;;5013221;28;20030;-83
2022/05/30 00:40:35;;;;;;;6.87;1.47;;;12.60;98.50;;;;;;5013067;28;20026;-83
2022/05/30 00:43:20;;;;;;;6.87;1.47;;;12.50;98.60;;;;;;5012053;28;20089;-83
2022/05/30 00:45:45;;;;;;;6.53;1.37;;;12.50;98.70;;;;;;5013024;28;20501;-83
2022/05/30 00:48:11;;;;;;;12.50;1.70;;;12.50;98.60;;;;;;5013201;28;20034;-83
2022/05/30 00:50:38;;;;;;;7.10;1.67;;;12.50;98.80;;;;;;5011587;28;20037;-83
2022/05/30 00:53:05;;;;;;;10.53;2.20;;;12.50;99.00;;;;;;5013153;28;20092;-83
2022/05/30 00:55:31;;;;;;;7.00;1.60;;;12.50;99.20;;;;;;5013118;28;20037;-83
2022/05/30 00:57:57;;;;;;;9.57;1.50;;;12.50;99.30;;;;;;5027981;28;20088;-84
2022/05/30 01:00:25;;;;;;;7.10;1.73;;;12.40;99.40;;;;;;5011335;28;20065;-84
2022/05/30 01:08:27;;;;;;;5.90;1.30;;;12.40;99.60;;;;;;5011611;28;20448;-83
2022/05/30 01:10:53;;;;;;;7.68;1.70;;;12.40;99.60;;;;;;5012903;28;20026;-84
2022/05/30 01:13:18;;;;;;;7.97;1.90;;;12.40;99.50;;;;;;5011517;28;20510;-84
2022/05/30 01:15:44;;;;;;;7.17;1.93;;;12.40;99.60;;;;;;5012377;28;20060;-83
2022/05/30 01:18:23;;;;;;;7.30;1.70;;;12.40;99.70;;;;;;5011479;28;20026;-83
2022/05/30 01:21:04;;;;;;;6.72;1.83;;;12.40;99.70;;;;;;4995065;28;20497;-83
2022/05/30 01:24:00;;;;;;;5.97;1.50;;;12.40;99.80;;;;;;5011537;28;20390;-83
2022/05/30 01:27:21;;;;;;;9.23;1.60;;;12.40;99.90;;;;;;5012315;28;20026;-84
2022/05/30 01:29:54;;;;;;;8.05;1.67;;;12.40;99.90;;;;;;4982453;28;20038;-83
2022/05/30 01:32:22;;;;;;;11.40;1.93;;;12.40;99.80;;;;;;5011666;28;20022;-83
2022/05/30 01:34:49;;;;;;;6.65;1.70;;;12.40;99.90;;;;;;5028011;28;20486;-83
2022/05/30 01:37:16;;;;;;;8.37;1.83;;;12.40;99.90;;;;;;5010869;28;20030;-84
2022/05/30 01:39:42;;;;;;;8.77;1.80;;;12.40;99.90;;;;;;5010763;28;20037;-84
2022/05/30 01:42:09;;;;;;;9.10;1.87;;;12.40;99.90;;;;;;5011236;28;20132;-84
2022/05/30 01:44:34;;;;;;;8.25;1.90;;;12.40;99.90;;;;;;5011217;28;20440;-84
2022/05/30 01:47:00;;;;;;;7.60;1.30;;;12.40;99.50;;;;;;5011830;28;20030;-84
2022/05/30 01:49:27;;;;;;;8.52;1.65;;;12.40;99.20;;;;;;5006921;28;20034;-84
2022/05/30 01:51:54;;;;;;;6.20;1.43;;;12.40;99.20;;;;;;5012762;28;20040;-84
2022/05/30 01:54:23;;;;;;;7.75;1.58;;;12.40;99.20;;;;;;5033152;28;20100;-84
2022/05/30 01:57:17;;;;;;;5.77;1.37;;;12.40;99.10;;;;;;5032862;28;20116;-84
2022/05/30 02:00:05;;;;;;;7.80;1.13;;;12.30;99.00;;;;;;5012719;28;20103;-84
2022/05/30 02:02:43;;;;;;;8.87;1.43;;;12.30;99.10;;;;;;5011887;28;20430;-83
2022/05/30 02:05:11;;;;;;;6.93;1.20;;;12.40;99.10;;;;;;5010656;28;20033;-83
2022/05/30 02:07:37;;;;;;;7.75;1.63;;;12.30;98.70;;;;;;5010165;28;20104;-83
2022/05/30 02:10:04;;;;;;;9.67;1.70;;;12.40;98.70;;;;;;5010328;28;20054;-83
2022/05/30 02:12:34;;;;;;;6.73;1.43;;;12.30;98.90;;;;;;5010407;28;20406;-83
2022/05/30 02:15:08;;;;;;;7.80;1.67;;;12.40;99.10;;;;;;5010528;28;20034;-83
2022/05/30 02:17:35;;;;;;;6.80;1.50;;;12.30;98.50;;;;;;5010145;28;20044;-83
2022/05/30 02:20:01;;;;;;;5.63;1.17;;;12.30;98.20;;;;;;5010023;28;20477;-83
2022/05/30 02:22:29;;;;;;;6.43;1.20;;;12.30;98.30;;;;;;5026641;28;20497;-83
2022/05/30 02:24:59;;;;;;;7.03;1.23;;;12.30;98.30;;;;;;5010624;28;20084;-83
2022/05/30 02:27:25;;;;;;;4.37;1.17;;;12.30;98.30;;;;;;5010196;28;20045;-83
2022/05/30 02:29:54;;;;;;;8.00;1.30;;;12.30;98.40;;;;;;5010046;28;20029;-84
2022/05/30 02:32:22;;;;;;;9.27;1.93;;;12.40;98.40;;;;;;5010278;28;20436;-84
2022/05/30 02:37:32;;;;;;;8.77;1.53;;;12.30;98.00;;;;;;5010200;28;20040;-84
2022/05/30 02:40:24;;;;;;;8.37;1.50;;;12.20;98.30;;;;;;5011188;28;20478;-83
2022/05/30 02:43:15;;;;;;;6.27;1.30;;;12.10;98.00;;;;;;4995136;28;20029;-83
2022/05/30 02:45:41;;;;;;;4.90;1.33;;;12.10;98.10;;;;;;5009242;28;20057;-84
2022/05/30 02:48:09;;;;;;;10.23;1.93;;;12.10;98.20;;;;;;5009825;28;20112;-84
2022/05/30 02:50:35;;;;;;;5.23;1.10;;;12.10;98.30;;;;;;5009612;28;20049;-84
2022/05/30 02:53:03;;;;;;;7.97;1.87;;;12.10;98.30;;;;;;5009973;28;20034;-83
2022/05/30 02:55:48;;;;;;;5.30;1.27;;;12.10;98.30;;;;;;5010627;28;20057;-83
2022/05/30 02:58:15;;;;;;;8.77;1.63;;;12.10;98.40;;;;;;5009797;28;20030;-83
2022/05/30 03:00:41;;;;;;;6.23;1.50;;;12.10;98.50;;;;;;5009509;28;20030;-84
2022/05/30 03:03:09;;;;;;;7.20;1.30;;;12.10;98.50;;;;;;5009777;28;20057;-84
2022/05/30 03:05:39;;;;;;;7.50;1.23;;;12.00;98.50;;;;;;5026208;28;20470;-83
2022/05/30 03:08:08;;;;;;;6.40;1.50;;;12.10;98.60;;;;;;4993766;28;20025;-83
2022/05/30 03:10:52;;;;;;;7.40;1.63;;;12.00;98.60;;;;;;5010856;28;20548;-83
2022/05/30 03:13:17;;;;;;;8.37;1.83;;;12.00;99.10;;;;;;5026211;28;20034;-83
2022/05/30 03:15:44;;;;;;;6.37;1.30;;;12.00;99.00;;;;;;5025863;28;20386;-85
2022/05/30 03:18:09;;;;;;;11.53;1.70;;;12.00;98.90;;;;;;5009686;28;20041;-84
2022/05/30 03:20:36;;;;;;;7.80;1.73;;;12.00;99.00;;;;;;5009252;28;20137;-83
2022/05/30 03:23:04;;;;;;;7.47;1.77;;;12.00;99.10;;;;;;5009533;28;20073;-84
2022/05/30 03:25:53;;;;;;;9.43;1.93;;;12.00;99.30;;;;;;5002322;28;20026;-84
2022/05/30 03:28:20;;;;;;;8.30;1.50;;;11.90;99.40;;;;;;5009687;28;20168;-83
2022/05/30 03:30:46;;;;;;;6.37;1.87;;;11.90;99.60;;;;;;5009243;28;20485;-84
2022/05/30 03:33:12;;;;;;;8.17;1.70;;;11.90;99.70;;;;;;5026017;28;20063;-83
2022/05/30 03:35:38;;;;;;;10.40;1.60;;;11.90;99.70;;;;;;5009734;28;20185;-83
2022/05/30 03:38:24;;;;;;;7.80;1.70;;;11.90;99.90;;;;;;5009526;28;20030;-84
2022/05/30 03:41:13;;;;;;;9.25;1.75;;;11.90;99.90;;;;;;5010542;28;20524;-83
2022/05/30 03:44:01;;;;;;;7.07;1.35;;;11.90;99.90;;;;;;5012397;28;20034;-83
2022/05/30 03:46:29;;;;;;;9.50;1.87;;;11.90;99.90;;;;;;5010642;28;20117;-83
2022/05/30 03:48:55;;;;;;;8.87;1.50;;;11.90;99.90;;;;;;5009221;28;20418;-83
2022/05/30 03:51:21;;;;;;;5.77;1.50;;;11.90;99.90;;;;;;5010611;28;20026;-84
2022/05/30 03:53:46;;;;;;;9.53;1.70;;;11.90;99.90;;;;;;5009235;28;20069;-83
2022/05/30 03:56:12;;;;;;;9.43;1.57;;;11.90;99.90;;;;;;5009552;28;20172;-84
2022/05/30 03:58:39;;;;;;;10.43;2.13;;;12.00;99.90;;;;;;5014217;28;20176;-84
2022/05/30 04:01:06;;;;;;;10.37;2.03;;;11.90;99.90;;;;;;5012840;28;20061;-84
2022/05/30 04:03:34;;;;;;;6.73;1.57;;;11.90;99.90;;;;;;5012861;28;20084;-84
2022/05/30 04:06:00;;;;;;;9.47;1.80;;;12.00;99.90;;;;;;5012576;28;20045;-84
2022/05/30 04:08:27;;;;;;;9.00;1.83;;;12.00;99.90;;;;;;5012815;28;20041;-84
2022/05/30 04:11:11;;;;;;;7.23;1.50;;;12.00;99.90;;;;;;5014081;28;20455;-84
2022/05/30 04:13:55;;;;;;;6.20;1.77;;;12.00;99.90;;;;;;5014493;28;20045;-84
2022/05/30 04:16:57;;;;;;;7.10;1.50;;;12.00;99.90;;;;;;4952920;29;20039;-83
2022/05/30 04:19:23;;;;;;;8.23;1.90;;;12.00;99.90;;;;;;4996584;28;20092;-83
2022/05/30 04:21:49;;;;;;;7.43;1.83;;;12.00;99.90;;;;;;5029052;28;20063;-83
2022/05/30 04:24:23;;;;;;;7.67;1.80;;;12.10;99.90;;;;;;5012758;28;20083;-83
2022/05/30 04:26:55;;;;;;;7.63;1.67;;;12.10;99.90;;;;;;5028764;28;20022;-83
2022/05/30 04:29:21;;;;;;;9.93;1.80;;;12.00;99.90;;;;;;5028774;28;20049;-83
2022/05/30 04:31:52;;;;;;;7.60;1.93;;;12.00;99.90;;;;;;5012761;28;20045;-83
2022/05/30 04:34:18;;;;;;;9.43;1.77;;;12.10;99.90;;;;;;4996196;28;20029;-83
2022/05/30 04:36:44;;;;;;;12.20;1.90;;;12.00;99.90;;;;;;5028642;28;20108;-83
2022/05/30 04:39:10;;;;;;;6.67;1.83;;;12.10;99.90;;;;;;5013817;28;20484;-84
2022/05/30 04:41:55;;;;;;;12.10;2.67;;;12.10;99.90;;;;;;5013481;28;20123;-83
2022/05/30 04:44:39;;;;;;;9.87;1.97;;;12.10;99.90;;;;;;5013861;28;20101;-83
2022/05/30 04:47:23;;;;;;;10.20;1.47;;;12.10;99.90;;;;;;5013361;28;20056;-83
2022/05/30 04:49:50;;;;;;;6.57;1.80;;;12.20;99.90;;;;;;5012170;28;20026;-84
2022/05/30 04:52:17;;;;;;;11.80;2.10;;;12.10;99.90;;;;;;5012235;28;20034;-83
2022/05/30 04:54:47;;;;;;;7.77;1.87;;;12.20;99.90;;;;;;4996414;28;20033;-83
2022/05/30 04:57:46;;;;;;;9.00;1.60;;;12.20;99.90;;;;;;5033433;23;20041;-86
2022/05/30 05:00:48;;;;;;;9.00;1.70;;;12.20;99.90;;;;;;5012525;28;20426;-89
2022/05/30 05:03:17;;;;;;;7.87;1.37;;;12.20;99.90;;;;;;5012311;28;20030;-89
2022/05/30 05:05:43;;;;;;;13.47;1.90;;;12.20;99.90;;;;;;5012381;28;20037;-87
2022/05/30 05:08:27;;;;;;;9.63;2.00;;;12.20;99.90;;;;;;5028255;28;20064;-87
2022/05/30 05:11:11;;;;;;;8.57;1.87;;;12.20;99.90;;;;;;5013746;28;20068;-87
2022/05/30 05:13:56;;;;;;;8.60;1.77;;;12.10;99.90;;;;;;5013437;28;20045;-87
2022/05/30 05:16:45;;;;;;;8.97;1.63;;;12.20;99.90;;;;;;5011954;28;20041;-89
2022/05/30 05:19:13;;;;;;;10.27;2.00;;;12.20;99.90;;;;;;4995448;28;20034;-87
2022/05/30 05:21:45;;;;;;;10.87;1.90;;;12.20;99.90;;;;;;5012981;28;20026;-89
2022/05/30 05:24:16;;;;;;;11.67;2.43;;;12.20;99.90;;;;;;5012914;28;20049;-87
2022/05/30 05:27:00;;;;;;;10.33;2.10;;;12.20;99.90;;;;;;5012937;28;20048;-88
2022/05/30 05:29:27;;;;;;;9.43;1.80;;;12.20;99.90;;;;;;5012838;28;20740;-87
2022/05/30 05:31:53;;;;;;;9.83;1.90;;;12.20;99.90;;;;;;5012772;28;20033;-88
2022/05/30 05:34:19;;;;;;;12.03;2.37;;;12.30;99.90;;;;;;5028150;28;20037;-88
2022/05/30 05:36:47;;;;;;;9.73;2.20;;;12.30;99.90;;;;;;5012618;28;20052;-89
2022/05/30 05:39:17;;;;;;;10.83;2.80;;;12.30;99.90;;;;;;5028193;28;20037;-89
2022/05/30 05:41:50;;;;;;;10.30;2.70;;;12.30;99.90;;;;;;5027211;28;20550;-89
2022/05/30 05:44:19;;;;;;;8.93;2.40;;;12.30;99.90;;;;;;5027664;28;20037;-88
2022/05/30 05:46:47;;;;;;;10.57;1.90;;;12.30;99.90;;;;;;5011105;28;20312;-89
2022/05/30 05:49:13;;;;;;;13.00;2.58;;;12.30;99.90;;;;;;5027747;28;20083;-88
2022/05/30 05:51:40;;;;;;;11.00;2.10;;;12.40;99.90;;;;;;5027704;28;20034;-89
2022/05/30 05:54:12;;;;;;;12.15;2.30;;;12.40;99.90;;;;;;5026965;28;20482;-88
2022/05/30 05:56:39;;;;;;;8.38;1.88;;;12.40;99.90;;;;;;5027498;28;20064;-88
2022/05/30 05:59:19;;;;;;;11.10;3.20;;;12.40;99.90;;;;;;5011160;28;20033;-88
2022/05/30 06:01:50;;;;;;;13.38;2.72;;;12.50;99.90;;;;;;5027833;28;20060;-89
2022/05/30 06:04:22;;;;;;;9.05;2.53;;;12.50;99.90;;;;;;5027664;28;20026;-89
2022/05/30 06:07:06;;;;;;;12.73;3.45;;;12.50;99.90;;;;;;5012128;28;20061;-89
2022/05/30 06:09:46;;;;;;;11.07;2.07;;;12.60;99.90;;;;;;5025525;28;20034;-89
2022/05/30 06:12:36;;;;;;;7.97;1.92;;;12.50;99.90;;;;;;5027646;28;20038;-89
2022/05/30 06:15:11;;;;;;;9.60;1.55;;;12.60;99.90;;;;;;5027527;28;20029;-89
2022/05/30 06:17:46;;;;;;;7.38;1.80;;;12.60;99.50;;;;;;5010533;28;20026;-88
2022/05/30 06:20:14;;;;;;;9.73;1.73;;;12.60;98.90;;;;;;5009595;28;20034;-88
2022/05/30 06:22:41;;;;;;;5.77;1.50;;;12.60;98.30;;;;;;5027078;28;20033;-88
2022/05/30 06:25:22;;;;;;;10.90;2.00;;;12.60;98.40;;;;;;5025003;28;20025;-86
2022/05/30 06:28:21;;;;;;;8.47;1.90;;;12.60;98.30;;;;;;5011213;28;20136;-88
2022/05/30 06:31:00;;;;;;;9.60;1.88;;;12.70;98.20;;;;;;5027001;28;20375;-89
2022/05/30 06:33:26;;;;;;;5.80;1.30;;;12.70;98.20;;;;;;5010667;28;20037;-88
2022/05/30 06:35:55;;;;;;;;;;;12.70;98.20;;;;;;4995303;28;20083;-88
2022/05/30 06:38:23;;;;;;;10.27;1.90;;;12.60;97.80;;;;;;5026621;28;19909;-89
2022/05/30 06:41:08;;;;;;;9.57;1.73;;;12.70;97.50;;;;;;5026770;28;20100;-88
2022/05/30 06:43:34;;;;;;;10.33;1.80;;;12.70;97.70;;;;;;5026924;28;20022;-88
2022/05/30 06:46:19;;;;;;;8.98;1.60;;;12.70;97.80;;;;;;5024288;28;20044;-88
2022/05/30 06:49:06;;;;;;;11.52;2.08;;;12.70;97.40;;;;;;5011311;28;20077;-88
2022/05/30 06:51:36;;;;;;;11.25;2.80;;;12.70;97.50;;;;;;5026630;28;20040;-88
2022/05/30 06:54:06;;;;;;;;;;;12.80;97.10;;;;;;5027024;28;20042;-88
2022/05/30 06:56:34;;;;;;;8.40;1.83;;;12.80;97.10;;;;;;5026790;28;20556;-88
2022/05/30 06:59:01;;;;;;;8.35;1.95;;;12.80;96.90;;;;;;4993600;28;20034;-88
2022/05/30 07:01:32;;;;;;;9.27;3.07;;;12.80;96.80;;;;;;4993927;28;20514;-88
2022/05/30 07:04:16;;;;;;;10.52;1.90;;;12.80;96.70;;;;;;5011641;28;20268;-88
2022/05/30 07:07:06;;;;;;;8.35;1.90;;;12.80;96.70;;;;;;5011251;28;20072;-88
2022/05/30 07:09:50;;;;;;;;;;;12.90;96.90;;;;;;5011764;28;20040;-88
2022/05/30 07:12:31;;;;;;;10.52;2.78;;;12.90;97.10;;;;;;5026615;28;20408;-88
2022/05/30 07:14:58;;;;;;;11.18;3.20;;;12.90;96.40;;;;;;5026556;28;20034;-88
2022/05/30 07:17:25;;;;;;;9.57;3.17;;;13.00;96.20;;;;;;5011056;28;20109;-88
2022/05/30 07:19:51;;;;;;;12.20;3.97;;;13.10;96.20;;;;;;5011121;28;20394;-88
2022/05/30 07:22:26;;;;;;;14.90;3.83;;;13.10;96.00;;;;;;5009990;28;20034;-88
2022/05/30 07:25:10;;;;;;;13.15;4.13;;;13.00;95.90;;;;;;5024408;28;20092;-88
2022/05/30 07:27:59;;;;;;;;;;;13.10;95.90;;;;;;5023483;28;20112;-88
2022/05/30 07:30:44;;;;;;;9.18;3.28;;;13.10;96.20;;;;;;5010903;28;19917;-87
2022/05/30 07:33:28;;;;;;;9.65;3.33;;;13.10;95.60;;;;;;5028095;28;20037;-87
2022/05/30 07:36:31;;;;;;;9.45;3.78;;;13.10;95.30;;;;;;5006317;28;20030;-88
2022/05/30 07:39:05;;;;;;;12.57;3.20;;;13.10;95.60;;;;;;5028865;28;20038;-88
2022/05/30 07:41:49;;;;;;;11.75;3.13;;;13.20;95.90;;;;;;5027841;28;20068;-88
2022/05/30 07:44:34;;;;;;;9.18;2.58;;;13.30;95.80;;;;;;4999735;28;20029;-88
2022/05/30 07:47:21;;;;;;;8.73;2.15;;;13.30;94.70;;;;;;5013225;28;20109;-88
2022/05/30 07:50:08;;;;;;;7.53;2.50;;;13.30;94.80;;;;;;5027113;28;20113;-88
2022/05/30 07:52:57;;;;;;;13.13;3.92;;;13.30;94.80;;;;;;5014895;28;20588;-88
2022/05/30 07:55:42;;;;;;;17.13;7.20;;;13.30;94.70;;;;;;5013236;28;20116;-88
2022/05/30 07:58:08;;;;;;;62.92;30.48;;;13.20;94.50;;;;;;5029694;28;20112;-87
2022/05/30 08:00:38;;;;;;;17.35;6.63;;;13.20;94.60;;;;;;5029633;28;20498;-87
2022/05/30 08:03:13;;;;;;;10.43;3.47;;;13.20;95.00;;;;;;5028664;28;20033;-87
2022/05/30 08:05:45;;;;;;;10.82;3.78;;;13.20;95.00;;;;;;5028878;28;20026;-88
2022/05/30 08:08:34;;;;;;;6.22;1.60;;;13.20;94.70;;;;;;5014209;28;20057;-88
2022/05/30 08:11:00;;;;;;;9.57;2.13;;;13.10;92.20;;;;;;5029670;28;20034;-88
2022/05/30 08:13:28;;;;;;;8.18;2.30;;;13.10;91.60;;;;;;5029547;28;20084;-88
2022/05/30 08:16:00;;;;;;;4.90;1.63;;;13.00;92.20;;;;;;5028445;28;20038;-88
2022/05/30 08:18:29;;;;;;;8.30;1.92;;;13.00;92.80;;;;;;5029518;28;20088;-88
2022/05/30 08:20:58;;;;;;;5.90;1.38;;;12.90;92.60;;;;;;5029291;28;20457;-87
2022/05/30 08:23:27;;;;;;;7.43;1.70;;;13.00;92.30;;;;;;5029404;28;20021;-88
2022/05/30 08:25:56;;;;;;;7.25;1.73;;;12.90;92.30;;;;;;5028876;28;20030;-88
2022/05/30 08:28:24;;;;;;;;;;;12.90;91.80;;;;;;5013043;28;20026;-88
2022/05/30 08:30:51;;;;;;;6.30;2.15;;;12.90;91.80;;;;;;5029101;28;19955;-88
2022/05/30 08:33:43;;;;;;;9.17;2.13;;;12.90;92.00;;;;;;5025708;28;20494;-88
2022/05/30 08:36:38;;;;;;;8.98;2.22;;;13.00;92.20;;;;;;5013051;28;20058;-88
2022/05/30 08:41:49;;;;;;;8.85;2.42;;;13.10;91.30;;;;;;5028986;28;20034;-88
2022/05/30 08:44:34;;;;;;;4.85;1.00;;;13.20;91.00;;;;;;5011965;28;20104;-88
2022/05/30 08:47:21;;;;;;;6.22;1.77;;;13.30;88.70;;;;;;5013658;28;20038;-87
2022/05/30 08:49:50;;;;;;;5.50;1.52;;;13.40;89.90;;;;;;5012310;28;20038;-88
2022/05/30 08:52:36;;;;;;;7.30;2.35;;;13.40;90.20;;;;;;5028940;28;20033;-88
2022/05/30 08:55:26;;;;;;;7.43;1.40;;;13.50;90.20;;;;;;5028956;28;20054;-88
2022/05/30 08:58:27;;;;;;;4.65;1.60;;;13.60;90.50;;;;;;5028623;28;20072;-88
2022/05/30 09:01:04;;;;;;;8.50;2.13;;;13.60;90.00;;;;;;5028517;28;20034;-88
2022/05/30 09:04:13;;;;;;;7.03;2.08;;;13.70;90.90;;;;;;5005179;28;20026;-88
2022/05/30 09:06:48;;;;;;;5.85;1.75;;;13.80;90.70;;;;;;5027904;28;20037;-88
2022/05/30 09:09:31;;;;;;;6.10;1.75;;;13.80;90.60;;;;;;5028554;28;20041;-89
2022/05/30 09:12:16;;;;;;;7.97;1.95;;;13.90;90.50;;;;;;5013229;28;20109;-88
2022/05/30 09:15:19;;;;;;;7.20;1.90;;;13.90;90.70;;;;;;5026847;28;20029;-89
2022/05/30 09:17:56;;;;;;;6.85;2.33;;;14.00;90.20;;;;;;5028214;28;20397;-88
2022/05/30 09:20:23;;;;;;;5.90;1.60;;;14.00;89.50;;;;;;5011457;28;20459;-88
2022/05/30 09:23:02;;;;;;;6.00;1.58;;;14.10;88.60;;;;;;5026729;28;20490;-88
2022/05/30 09:26:01;;;;;;;5.50;1.40;;;14.10;86.80;;;;;;5027961;28;20041;-88
2022/05/30 09:28:48;;;;;;;8.75;2.25;;;14.10;88.70;;;;;;5026546;28;20042;-88
2022/05/30 09:31:36;;;;;;;7.05;1.73;;;14.10;89.70;;;;;;5012705;28;20060;-88
2022/05/30 09:34:39;;;;;;;6.55;1.80;;;14.10;89.80;;;;;;5025971;28;20481;-88
2022/05/30 09:37:39;;;;;;;4.93;0.93;;;14.10;89.50;;;;;;5024729;28;20069;-88
2022/05/30 09:40:09;;;;;;;6.43;1.10;;;14.00;88.40;;;;;;5027266;28;20040;-88
2022/05/30 09:42:53;;;;;;;4.00;1.45;;;14.00;87.70;;;;;;5027388;28;20018;-89
2022/05/30 09:45:28;;;;;;;4.53;1.15;;;14.10;88.30;;;;;;5027875;28;20096;-88
2022/05/30 09:48:12;;;;;;;3.90;1.33;;;14.10;87.90;;;;;;5012303;28;20355;-89
2022/05/30 09:50:59;;;;;;;3.35;1.20;;;14.20;86.30;;;;;;5014294;28;20041;-88
2022/05/30 09:53:44;;;;;;;5.05;1.13;;;14.30;84.80;;;;;;5027813;28;20036;-88
2022/05/30 09:56:14;;;;;;;7.95;1.60;;;14.40;84.40;;;;;;5027470;28;20037;-88
2022/05/30 09:58:47;;;;;;;6.93;1.35;;;14.40;84.50;;;;;;5027468;28;20065;-88
2022/05/30 10:01:48;;;;;;;4.55;1.55;;;14.40;84.80;;;;;;5010844;28;20509;-88
2022/05/30 10:04:16;;;;;;;4.43;0.90;;;14.50;84.60;;;;;;5027347;28;20030;-89
2022/05/30 10:07:15;;;;;;;2.13;1.00;;;14.50;84.10;;;;;;5010551;28;20069;-89
2022/05/30 10:10:11;;;;;;;4.57;1.10;;;14.50;84.40;;;;;;5027146;28;20033;-88
2022/05/30 10:12:51;;;;;;;2.90;1.00;;;14.50;83.50;;;;;;5027019;28;20149;-88
2022/05/30 10:15:29;;;;;;;4.60;0.90;;;14.40;82.80;;;;;;5027044;28;20115;-88
2022/05/30 10:18:17;;;;;;;5.10;1.27;;;14.40;82.60;;;;;;5010584;28;20442;-88
2022/05/30 10:21:17;;;;;;;6.47;2.10;;;14.30;83.20;;;;;;5010647;28;20038;-88
2022/05/30 10:30:33;;;;;;;5.43;1.60;;;14.30;85.60;;;;;;5010338;28;20038;-89
2022/05/30 10:33:57;;;;;;;6.27;1.60;;;14.30;85.00;;;;;;5010439;28;20041;-88
2022/05/30 10:36:53;;;;;;;8.73;1.92;;;14.30;84.50;;;;;;5026679;28;20076;-88
2022/05/30 10:40:00;;;;;;;5.97;2.13;;;14.30;83.90;;;;;;5026869;28;20080;-88
2022/05/30 10:42:42;;;;;;;7.15;1.90;;;14.40;83.80;;;;;;5026580;28;20030;-87
2022/05/30 10:45:21;;;;;;;5.15;1.77;;;14.40;83.50;;;;;;5026803;28;20087;-89
2022/05/30 10:47:51;;;;;;;7.60;1.30;;;14.40;83.30;;;;;;5026423;28;20029;-88
2022/05/30 10:50:43;;;;;;;6.97;1.20;;;14.40;82.90;;;;;;5026479;28;20033;-88
2022/05/30 10:53:27;;;;;;;4.97;1.30;;;14.50;82.20;;;;;;5010124;28;20633;-88
2022/05/30 10:56:23;;;;;;;7.30;2.25;;;14.50;81.90;;;;;;5010559;28;20033;-86
2022/05/30 10:58:56;;;;;;;6.05;2.28;;;14.60;83.00;;;;;;5074773;23;20056;-65
2022/05/30 11:01:51;;;;;;;8.45;3.03;;;14.70;83.30;;;;;;5029552;28;20029;-65
2022/05/30 11:04:40;;;;;;;9.43;2.75;;;14.70;83.20;;;;;;5029797;28;20049;-67
2022/05/30 11:07:32;;;;;;;10.88;2.67;;;14.70;84.00;;;;;;5030733;28;20033;-65
2022/05/30 11:10:04;;;;;;;8.27;3.08;;;14.80;83.10;;;;;;5029405;28;20048;-65
2022/05/30 11:12:39;;;;;;;5.00;1.88;;;14.90;83.00;;;;;;5013280;28;20508;-65
2022/05/30 11:15:19;;;;;;;6.30;2.05;;;14.90;82.80;;;;;;5013263;28;20103;-68
2022/05/30 11:18:28;;;;;;;11.35;3.90;;;14.90;84.10;;;;;;5030804;28;20036;-67
2022/05/30 11:21:35;;;;;;;8.48;2.53;;;15.00;82.10;;;;;;5029538;28;20044;-67
2022/05/30 11:24:02;;;;;;;10.45;3.70;;;15.00;81.80;;;;;;5029312;28;20029;-68
2022/05/30 11:26:56;;;;;;;8.32;3.08;;;15.00;80.90;;;;;;5030587;28;20512;-65
2022/05/30 11:29:56;;;;;;;5.05;1.80;;;15.10;80.60;;;;;;5030691;28;20025;-68
2022/05/30 11:32:30;;;;;;;4.85;1.67;;;15.20;79.60;;;;;;5030782;28;20033;-65
2022/05/30 11:35:02;;;;;;;3.67;1.15;;;15.20;79.40;;;;;;5030671;28;20061;-66
2022/05/30 11:37:58;;;;;;;5.28;1.35;;;15.30;80.80;;;;;;5029202;28;20547;-68
2022/05/30 11:40:34;;;;;;;4.55;0.88;;;15.40;81.40;;;;;;5030317;28;20037;-66
2022/05/30 11:43:00;;;;;;;2.28;0.80;;;15.40;80.70;;;;;;5030602;28;20116;-66
2022/05/30 11:45:51;;;;;;;3.38;0.98;;;15.40;81.00;;;;;;5030611;28;20450;-65
2022/05/30 11:48:28;;;;;;;8.32;1.50;;;15.40;82.00;;;;;;5029235;28;20029;-65
2022/05/30 11:51:03;;;;;;;3.05;1.00;;;15.40;83.40;;;;;;5030338;28;20474;-65
2022/05/30 11:54:04;;;;;;;4.90;1.20;;;15.50;82.30;;;;;;5030332;28;20060;-66
2022/05/30 11:56:56;;;;;;;8.30;2.20;;;15.40;81.80;;;;;;5028994;28;20111;-66
2022/05/30 11:59:25;;;;;;;11.75;3.90;;;15.40;81.80;;;;;;5022189;28;20055;-66
2022/05/30 12:01:55;;;;;;;46.72;23.77;;;15.40;82.10;;;;;;5030861;28;20124;-66
2022/05/30 12:04:41;;;;;;;4.97;1.48;;;15.40;82.90;;;;;;5030783;28;20022;-66
2022/05/30 12:07:45;;;;;;;4.43;1.38;;;15.50;82.80;;;;;;5030176;28;20045;-66
2022/05/30 12:10:53;;;;;;;3.85;0.93;;;15.60;82.40;;;;;;5029959;28;20033;-67
2022/05/30 12:13:57;;;;;;;2.88;0.90;;;15.80;81.90;;;;;;5000813;28;20068;-66
2022/05/30 12:16:29;;;;;;;5.38;0.98;;;16.00;79.30;;;;;;5029951;28;20021;-67
2022/05/30 12:25:34;;;;;;;3.70;0.82;;;16.00;75.60;;;;;;5011658;28;20411;-66
2022/05/30 12:28:06;;;;;;;5.40;1.20;;;15.90;75.30;;;;;;5023631;28;20038;-66
2022/05/30 12:30:35;;;;;;;5.00;0.95;;;15.80;75.00;;;;;;5033430;28;20478;-66
2022/05/30 12:33:22;;;;;;;2.05;0.57;;;15.70;75.10;;;;;;5033427;28;20025;-66
2022/05/30 12:36:08;;;;;;;4.00;1.00;;;15.70;76.10;;;;;;5033291;28;20029;-66
2022/05/30 12:39:00;;;;;;;1.58;0.65;;;15.70;75.80;;;;;;5033247;28;20025;-66
2022/05/30 12:41:31;;;;;;;4.78;0.98;;;15.60;77.30;;;;;;5033265;28;20060;-66
2022/05/30 12:43:58;;;;;;;5.05;1.00;;;15.60;78.90;;;;;;5033335;28;20036;-66
2022/05/30 12:46:30;;;;;;;5.18;1.10;;;15.60;79.20;;;;;;5033117;28;20084;-66
2022/05/30 12:49:14;;;;;;;4.68;1.15;;;15.50;78.80;;;;;;5033188;28;20021;-67
2022/05/30 12:52:14;;;;;;;3.67;1.40;;;15.50;78.40;;;;;;5033223;28;20433;-66
2022/05/30 12:54:58;;;;;;;5.45;1.83;;;15.50;78.80;;;;;;4999781;28;20482;-66
2022/05/30 12:57:44;;;;;;;4.13;1.20;;;15.50;79.00;;;;;;5032954;28;20444;-66
2022/05/30 13:00:22;;;;;;;4.85;1.70;;;15.50;78.60;;;;;;5031545;28;20041;-66
2022/05/30 13:02:56;;;;;;;3.63;1.20;;;15.50;78.60;;;;;;5033087;28;20123;-66
2022/05/30 13:05:26;;;;;;;4.13;1.40;;;15.50;78.00;;;;;;5033041;28;20025;-67
2022/05/30 13:07:52;;;;;;;4.43;0.90;;;15.50;77.90;;;;;;5032689;28;20025;-66
2022/05/30 13:10:18;;;;;;;4.53;1.02;;;15.50;77.90;;;;;;5032686;28;20051;-66
2022/05/30 13:13:03;;;;;;;5.40;1.20;;;15.50;78.10;;;;;;5032839;28;20498;-66
2022/05/30 13:15:50;;;;;;;4.03;0.93;;;15.60;78.30;;;;;;5032775;28;20031;-66
2022/05/30 13:18:20;;;;;;;3.28;0.90;;;15.60;78.60;;;;;;5032715;28;20034;-66
2022/05/30 13:21:02;;;;;;;3.55;1.10;;;15.50;78.50;;;;;;5032633;28;20176;-66
2022/05/30 13:23:33;;;;;;;6.55;1.20;;;15.60;78.80;;;;;;5032860;28;20033;-66
2022/05/30 13:26:01;;;;;;;6.18;1.00;;;15.60;79.10;;;;;;5032493;28;20375;-66
2022/05/30 13:28:29;;;;;;;3.25;1.00;;;15.60;78.80;;;;;;5032487;28;20509;-66
2022/05/30 13:30:57;;;;;;;3.97;1.10;;;15.60;79.00;;;;;;5032080;28;20065;-66
2022/05/30 13:33:32;;;;;;;4.57;1.00;;;15.60;78.70;;;;;;5032462;28;20033;-66
2022/05/30 13:36:02;;;;;;;4.05;0.80;;;15.60;79.50;;;;;;5032241;28;20038;-66
2022/05/30 13:38:40;;;;;;;4.25;0.85;;;15.60;78.90;;;;;;5032396;28;20040;-66
2022/05/30 13:41:24;;;;;;;6.28;1.20;;;15.70;78.90;;;;;;5032457;28;20037;-66
2022/05/30 13:43:53;;;;;;;6.78;1.67;;;15.70;78.20;;;;;;5032148;28;20121;-66
2022/05/30 13:46:29;;;;;;;2.67;1.05;;;15.80;77.40;;;;;;5032213;28;20025;-66
2022/05/30 13:48:55;;;;;;;4.25;0.98;;;15.80;77.50;;;;;;5032191;28;20033;-66
2022/05/30 13:51:30;;;;;;;3.53;1.10;;;15.80;77.40;;;;;;5032021;28;20036;-66
2022/05/30 13:53:57;;;;;;;4.28;1.20;;;15.80;77.50;;;;;;5032058;28;20486;-66
2022/05/30 13:56:51;;;;;;;3.00;1.23;;;15.90;77.40;;;;;;5031771;28;20476;-66
2022/05/30 13:59:26;;;;;;;5.00;1.40;;;15.90;78.10;;;;;;5029650;28;20052;-66